Terminal Aerodrome Forecast
Issued by NWS Portland, OR

Home | Current Version | Previous Version | Text Only | Print | Product List | Glossary On
Versions: 1 2 3 4 5 6 7 8 9 10 11 12 13 14 15 16 17 18
000
FTUS46 KPQR 290530
TAFAST
TAF
KAST 290530Z 2906/3006 29004KT P6SM OVC023
     FM290800 26004KT P6SM OVC015
     FM291700 28004KT P6SM OVC022
     FM292200 30007KT P6SM OVC050
     FM300400 29004KT P6SM OVC025=

USA.gov is the U.S. government's official web portal to all federal, state and local government web resources and services.